sensor_id;sensor_type;location;lat;lon;timestamp;P1;durP1;ratioP1;P2;durP2;ratioP2
7233;SDS011;3658;47.992;10.158;2023-05-07T00:01:04;1.90;;;1.70;;
7233;SDS011;3658;47.992;10.158;2023-05-07T00:03:33;1.90;;;1.70;;
7233;SDS011;3658;47.992;10.158;2023-05-07T00:05:59;1.70;;;1.60;;
7233;SDS011;3658;47.992;10.158;2023-05-07T00:08:26;1.87;;;1.70;;
7233;SDS011;3658;47.992;10.158;2023-05-07T00:10:53;1.97;;;1.77;;
7233;SDS011;3658;47.992;10.158;2023-05-07T00:13:20;1.83;;;1.70;;
7233;SDS011;3658;47.992;10.158;2023-05-07T00:15:47;2.40;;;1.80;;
7233;SDS011;3658;47.992;10.158;2023-05-07T00:18:13;2.33;;;2.00;;
7233;SDS011;3658;47.992;10.158;2023-05-07T00:20:42;1.90;;;1.80;;
7233;SDS011;3658;47.992;10.158;2023-05-07T00:23:09;1.80;;;1.70;;
7233;SDS011;3658;47.992;10.158;2023-05-07T00:25:35;2.00;;;1.77;;
7233;SDS011;3658;47.992;10.158;2023-05-07T00:28:02;1.90;;;1.70;;
7233;SDS011;3658;47.992;10.158;2023-05-07T00:30:29;2.00;;;1.80;;
7233;SDS011;3658;47.992;10.158;2023-05-07T00:32:56;1.80;;;1.70;;
7233;SDS011;3658;47.992;10.158;2023-05-07T00:35:23;1.80;;;1.70;;
7233;SDS011;3658;47.992;10.158;2023-05-07T00:37:51;1.53;;;1.43;;
7233;SDS011;3658;47.992;10.158;2023-05-07T00:40:18;1.80;;;1.70;;
7233;SDS011;3658;47.992;10.158;2023-05-07T00:42:44;2.40;;;1.90;;
7233;SDS011;3658;47.992;10.158;2023-05-07T00:45:12;1.83;;;1.60;;
7233;SDS011;3658;47.992;10.158;2023-05-07T00:47:38;2.10;;;1.60;;
7233;SDS011;3658;47.992;10.158;2023-05-07T00:50:06;1.87;;;1.67;;
7233;SDS011;3658;47.992;10.158;2023-05-07T00:52:36;1.60;;;1.50;;
7233;SDS011;3658;47.992;10.158;2023-05-07T00:55:05;1.67;;;1.57;;
7233;SDS011;3658;47.992;10.158;2023-05-07T00:57:34;1.93;;;1.70;;
7233;SDS011;3658;47.992;10.158;2023-05-07T01:00:03;1.60;;;1.50;;
7233;SDS011;3658;47.992;10.158;2023-05-07T01:02:31;2.30;;;2.10;;
7233;SDS011;3658;47.992;10.158;2023-05-07T01:04:58;1.67;;;1.50;;
7233;SDS011;3658;47.992;10.158;2023-05-07T01:07:26;1.70;;;1.60;;
7233;SDS011;3658;47.992;10.158;2023-05-07T01:09:54;1.60;;;1.50;;
7233;SDS011;3658;47.992;10.158;2023-05-07T01:12:22;1.50;;;1.40;;
7233;SDS011;3658;47.992;10.158;2023-05-07T01:14:50;1.70;;;1.60;;
7233;SDS011;3658;47.992;10.158;2023-05-07T01:17:18;1.73;;;1.63;;
7233;SDS011;3658;47.992;10.158;2023-05-07T01:19:44;1.70;;;1.60;;
7233;SDS011;3658;47.992;10.158;2023-05-07T01:22:12;1.90;;;1.70;;
7233;SDS011;3658;47.992;10.158;2023-05-07T01:24:44;1.97;;;1.67;;
7233;SDS011;3658;47.992;10.158;2023-05-07T01:27:11;1.77;;;1.63;;
7233;SDS011;3658;47.992;10.158;2023-05-07T01:29:37;1.70;;;1.60;;
7233;SDS011;3658;47.992;10.158;2023-05-07T01:32:05;1.80;;;1.70;;
7233;SDS011;3658;47.992;10.158;2023-05-07T01:34:32;2.03;;;1.90;;
7233;SDS011;3658;47.992;10.158;2023-05-07T01:37:00;1.63;;;1.53;;
7233;SDS011;3658;47.992;10.158;2023-05-07T01:39:28;1.93;;;1.60;;
7233;SDS011;3658;47.992;10.158;2023-05-07T01:41:56;2.50;;;1.60;;
7233;SDS011;3658;47.992;10.158;2023-05-07T01:44:25;1.80;;;1.70;;
7233;SDS011;3658;47.992;10.158;2023-05-07T01:46:52;2.13;;;1.73;;
7233;SDS011;3658;47.992;10.158;2023-05-07T01:49:20;1.90;;;1.70;;
7233;SDS011;3658;47.992;10.158;2023-05-07T01:51:47;1.70;;;1.60;;
7233;SDS011;3658;47.992;10.158;2023-05-07T01:54:14;1.70;;;1.60;;
7233;SDS011;3658;47.992;10.158;2023-05-07T01:56:41;1.70;;;1.60;;
7233;SDS011;3658;47.992;10.158;2023-05-07T01:59:09;1.80;;;1.70;;
7233;SDS011;3658;47.992;10.158;2023-05-07T02:01:38;1.70;;;1.60;;
7233;SDS011;3658;47.992;10.158;2023-05-07T02:04:05;1.60;;;1.50;;
7233;SDS011;3658;47.992;10.158;2023-05-07T02:06:32;1.70;;;1.60;;
7233;SDS011;3658;47.992;10.158;2023-05-07T02:08:58;2.03;;;1.70;;
7233;SDS011;3658;47.992;10.158;2023-05-07T02:11:25;1.57;;;1.47;;
7233;SDS011;3658;47.992;10.158;2023-05-07T02:13:52;1.87;;;1.60;;
7233;SDS011;3658;47.992;10.158;2023-05-07T02:16:20;1.50;;;1.40;;
7233;SDS011;3658;47.992;10.158;2023-05-07T02:18:48;2.23;;;1.90;;
7233;SDS011;3658;47.992;10.158;2023-05-07T02:21:14;1.60;;;1.50;;
7233;SDS011;3658;47.992;10.158;2023-05-07T02:23:41;1.80;;;1.70;;
7233;SDS011;3658;47.992;10.158;2023-05-07T02:26:08;1.73;;;1.63;;
7233;SDS011;3658;47.992;10.158;2023-05-07T02:28:36;2.30;;;1.93;;
7233;SDS011;3658;47.992;10.158;2023-05-07T02:31:03;1.83;;;1.73;;
7233;SDS011;3658;47.992;10.158;2023-05-07T02:33:31;1.60;;;1.50;;
7233;SDS011;3658;47.992;10.158;2023-05-07T02:36:05;2.10;;;1.90;;
7233;SDS011;3658;47.992;10.158;2023-05-07T02:38:32;1.43;;;1.33;;
7233;SDS011;3658;47.992;10.158;2023-05-07T02:40:59;2.23;;;1.40;;
7233;SDS011;3658;47.992;10.158;2023-05-07T02:43:26;1.70;;;1.53;;
7233;SDS011;3658;47.992;10.158;2023-05-07T02:45:59;2.00;;;1.63;;
7233;SDS011;3658;47.992;10.158;2023-05-07T02:48:27;1.70;;;1.60;;
7233;SDS011;3658;47.992;10.158;2023-05-07T02:50:55;2.03;;;1.83;;
7233;SDS011;3658;47.992;10.158;2023-05-07T02:53:22;2.00;;;1.50;;
7233;SDS011;3658;47.992;10.158;2023-05-07T02:55:51;2.20;;;2.00;;
7233;SDS011;3658;47.992;10.158;2023-05-07T02:58:18;2.10;;;1.60;;
7233;SDS011;3658;47.992;10.158;2023-05-07T03:00:45;1.87;;;1.77;;
7233;SDS011;3658;47.992;10.158;2023-05-07T03:03:11;1.83;;;1.67;;
7233;SDS011;3658;47.992;10.158;2023-05-07T03:05:38;1.53;;;1.43;;
7233;SDS011;3658;47.992;10.158;2023-05-07T03:08:06;1.70;;;1.60;;
7233;SDS011;3658;47.992;10.158;2023-05-07T03:10:33;1.77;;;1.67;;
7233;SDS011;3658;47.992;10.158;2023-05-07T03:13:01;2.17;;;1.67;;
7233;SDS011;3658;47.992;10.158;2023-05-07T03:15:28;1.60;;;1.50;;
7233;SDS011;3658;47.992;10.158;2023-05-07T03:17:54;2.53;;;1.60;;
7233;SDS011;3658;47.992;10.158;2023-05-07T03:20:21;2.73;;;1.70;;
7233;SDS011;3658;47.992;10.158;2023-05-07T03:22:48;1.73;;;1.63;;
7233;SDS011;3658;47.992;10.158;2023-05-07T03:25:16;2.30;;;1.67;;
7233;SDS011;3658;47.992;10.158;2023-05-07T03:27:43;1.90;;;1.73;;
7233;SDS011;3658;47.992;10.158;2023-05-07T03:30:10;1.70;;;1.50;;
7233;SDS011;3658;47.992;10.158;2023-05-07T03:32:38;1.80;;;1.60;;
7233;SDS011;3658;47.992;10.158;2023-05-07T03:35:05;1.67;;;1.57;;
7233;SDS011;3658;47.992;10.158;2023-05-07T03:37:32;1.70;;;1.60;;
7233;SDS011;3658;47.992;10.158;2023-05-07T03:39:59;1.50;;;1.40;;
7233;SDS011;3658;47.992;10.158;2023-05-07T03:42:27;1.60;;;1.50;;
7233;SDS011;3658;47.992;10.158;2023-05-07T03:44:55;1.80;;;1.70;;
7233;SDS011;3658;47.992;10.158;2023-05-07T03:47:21;1.57;;;1.47;;
7233;SDS011;3658;47.992;10.158;2023-05-07T03:49:48;1.80;;;1.70;;
7233;SDS011;3658;47.992;10.158;2023-05-07T03:52:18;1.70;;;1.60;;
7233;SDS011;3658;47.992;10.158;2023-05-07T03:54:48;1.77;;;1.67;;
7233;SDS011;3658;47.992;10.158;2023-05-07T03:57:15;1.50;;;1.37;;
7233;SDS011;3658;47.992;10.158;2023-05-07T03:59:43;1.63;;;1.53;;
7233;SDS011;3658;47.992;10.158;2023-05-07T04:02:10;1.70;;;1.50;;
7233;SDS011;3658;47.992;10.158;2023-05-07T04:04:40;1.60;;;1.50;;
7233;SDS011;3658;47.992;10.158;2023-05-07T04:07:07;1.40;;;1.30;;
7233;SDS011;3658;47.992;10.158;2023-05-07T04:09:34;1.90;;;1.73;;
7233;SDS011;3658;47.992;10.158;2023-05-07T04:12:01;1.70;;;1.60;;
7233;SDS011;3658;47.992;10.158;2023-05-07T04:14:28;1.40;;;1.30;;
7233;SDS011;3658;47.992;10.158;2023-05-07T04:16:58;1.60;;;1.50;;
7233;SDS011;3658;47.992;10.158;2023-05-07T04:19:25;1.43;;;1.33;;
7233;SDS011;3658;47.992;10.158;2023-05-07T04:21:51;1.53;;;1.43;;
7233;SDS011;3658;47.992;10.158;2023-05-07T04:24:18;1.57;;;1.47;;
7233;SDS011;3658;47.992;10.158;2023-05-07T04:26:45;1.40;;;1.30;;
7233;SDS011;3658;47.992;10.158;2023-05-07T04:29:12;1.90;;;1.53;;
7233;SDS011;3658;47.992;10.158;2023-05-07T04:31:38;1.30;;;1.20;;
7233;SDS011;3658;47.992;10.158;2023-05-07T04:34:07;1.60;;;1.50;;
7233;SDS011;3658;47.992;10.158;2023-05-07T04:36:34;1.50;;;1.40;;
7233;SDS011;3658;47.992;10.158;2023-05-07T04:39:02;1.40;;;1.30;;
7233;SDS011;3658;47.992;10.158;2023-05-07T04:41:28;1.43;;;1.33;;
7233;SDS011;3658;47.992;10.158;2023-05-07T04:43:56;1.50;;;1.40;;
7233;SDS011;3658;47.992;10.158;2023-05-07T04:46:23;1.70;;;1.60;;
7233;SDS011;3658;47.992;10.158;2023-05-07T04:48:50;1.50;;;1.40;;
7233;SDS011;3658;47.992;10.158;2023-05-07T04:51:18;1.50;;;1.40;;
7233;SDS011;3658;47.992;10.158;2023-05-07T04:53:45;1.43;;;1.33;;
7233;SDS011;3658;47.992;10.158;2023-05-07T04:56:12;1.43;;;1.23;;
7233;SDS011;3658;47.992;10.158;2023-05-07T04:58:39;1.50;;;1.40;;
7233;SDS011;3658;47.992;10.158;2023-05-07T05:01:06;1.47;;;1.37;;
7233;SDS011;3658;47.992;10.158;2023-05-07T05:03:32;1.73;;;1.63;;
7233;SDS011;3658;47.992;10.158;2023-05-07T05:05:59;1.60;;;1.50;;
7233;SDS011;3658;47.992;10.158;2023-05-07T05:08:27;1.47;;;1.37;;
7233;SDS011;3658;47.992;10.158;2023-05-07T05:10:55;1.50;;;1.30;;
7233;SDS011;3658;47.992;10.158;2023-05-07T05:13:22;1.50;;;1.40;;
7233;SDS011;3658;47.992;10.158;2023-05-07T05:15:49;1.50;;;1.30;;
7233;SDS011;3658;47.992;10.158;2023-05-07T05:18:16;1.30;;;1.20;;
7233;SDS011;3658;47.992;10.158;2023-05-07T05:20:42;1.30;;;1.20;;
7233;SDS011;3658;47.992;10.158;2023-05-07T05:23:10;1.30;;;1.20;;
7233;SDS011;3658;47.992;10.158;2023-05-07T05:25:38;1.20;;;1.10;;
7233;SDS011;3658;47.992;10.158;2023-05-07T05:28:06;1.40;;;1.30;;
7233;SDS011;3658;47.992;10.158;2023-05-07T05:30:33;1.50;;;1.40;;
7233;SDS011;3658;47.992;10.158;2023-05-07T05:33:00;1.27;;;1.17;;
7233;SDS011;3658;47.992;10.158;2023-05-07T05:35:27;1.53;;;1.23;;
7233;SDS011;3658;47.992;10.158;2023-05-07T05:37:55;1.40;;;1.30;;
7233;SDS011;3658;47.992;10.158;2023-05-07T05:40:22;1.30;;;1.20;;
7233;SDS011;3658;47.992;10.158;2023-05-07T05:42:50;1.63;;;1.53;;
7233;SDS011;3658;47.992;10.158;2023-05-07T05:45:17;1.60;;;1.50;;
7233;SDS011;3658;47.992;10.158;2023-05-07T05:47:43;1.53;;;1.43;;
7233;SDS011;3658;47.992;10.158;2023-05-07T05:50:10;1.37;;;1.27;;
7233;SDS011;3658;47.992;10.158;2023-05-07T05:52:37;1.30;;;1.20;;
7233;SDS011;3658;47.992;10.158;2023-05-07T05:55:06;1.07;;;1.07;;
7233;SDS011;3658;47.992;10.158;2023-05-07T05:57:33;1.30;;;1.20;;
7233;SDS011;3658;47.992;10.158;2023-05-07T06:00:01;1.13;;;1.10;;
7233;SDS011;3658;47.992;10.158;2023-05-07T06:02:29;1.43;;;1.30;;
7233;SDS011;3658;47.992;10.158;2023-05-07T06:04:56;1.30;;;1.20;;
7233;SDS011;3658;47.992;10.158;2023-05-07T06:07:22;1.30;;;1.10;;
7233;SDS011;3658;47.992;10.158;2023-05-07T06:09:49;1.20;;;1.10;;
7233;SDS011;3658;47.992;10.158;2023-05-07T06:12:16;1.10;;;1.10;;
7233;SDS011;3658;47.992;10.158;2023-05-07T06:14:43;1.30;;;1.20;;
7233;SDS011;3658;47.992;10.158;2023-05-07T06:17:11;1.20;;;1.10;;
7233;SDS011;3658;47.992;10.158;2023-05-07T06:19:38;1.40;;;1.23;;
7233;SDS011;3658;47.992;10.158;2023-05-07T06:22:04;0.90;;;0.90;;
7233;SDS011;3658;47.992;10.158;2023-05-07T06:24:31;1.10;;;1.10;;
7233;SDS011;3658;47.992;10.158;2023-05-07T06:26:58;1.07;;;1.03;;
7233;SDS011;3658;47.992;10.158;2023-05-07T06:29:25;1.17;;;1.13;;
7233;SDS011;3658;47.992;10.158;2023-05-07T06:31:52;1.30;;;1.20;;
7233;SDS011;3658;47.992;10.158;2023-05-07T06:34:20;1.03;;;1.00;;
7233;SDS011;3658;47.992;10.158;2023-05-07T06:36:47;1.47;;;1.30;;
7233;SDS011;3658;47.992;10.158;2023-05-07T06:39:14;1.20;;;1.10;;
7233;SDS011;3658;47.992;10.158;2023-05-07T06:41:41;1.00;;;1.00;;
7233;SDS011;3658;47.992;10.158;2023-05-07T06:44:07;1.17;;;1.13;;
7233;SDS011;3658;47.992;10.158;2023-05-07T06:46:34;1.93;;;1.40;;
7233;SDS011;3658;47.992;10.158;2023-05-07T06:49:01;3.23;;;1.60;;
7233;SDS011;3658;47.992;10.158;2023-05-07T06:51:29;4.90;;;1.80;;
7233;SDS011;3658;47.992;10.158;2023-05-07T06:53:56;2.13;;;1.50;;
7233;SDS011;3658;47.992;10.158;2023-05-07T06:56:22;6.23;;;1.70;;
7233;SDS011;3658;47.992;10.158;2023-05-07T06:58:50;10.10;;;2.00;;
7233;SDS011;3658;47.992;10.158;2023-05-07T07:01:17;14.90;;;2.20;;
7233;SDS011;3658;47.992;10.158;2023-05-07T07:03:43;11.33;;;2.37;;
7233;SDS011;3658;47.992;10.158;2023-05-07T07:06:10;16.10;;;2.83;;
7233;SDS011;3658;47.992;10.158;2023-05-07T07:08:38;17.27;;;2.97;;
7233;SDS011;3658;47.992;10.158;2023-05-07T07:11:05;6.47;;;2.00;;
7233;SDS011;3658;47.992;10.158;2023-05-07T07:13:32;7.93;;;2.30;;
7233;SDS011;3658;47.992;10.158;2023-05-07T07:15:59;12.53;;;2.30;;
7233;SDS011;3658;47.992;10.158;2023-05-07T07:18:26;10.73;;;2.37;;
7233;SDS011;3658;47.992;10.158;2023-05-07T07:20:53;2.73;;;1.97;;
7233;SDS011;3658;47.992;10.158;2023-05-07T07:23:20;4.80;;;2.17;;
7233;SDS011;3658;47.992;10.158;2023-05-07T07:25:48;8.57;;;2.30;;
7233;SDS011;3658;47.992;10.158;2023-05-07T07:28:15;11.90;;;2.50;;
7233;SDS011;3658;47.992;10.158;2023-05-07T07:30:42;5.80;;;2.40;;
7233;SDS011;3658;47.992;10.158;2023-05-07T07:33:09;3.43;;;1.90;;
7233;SDS011;3658;47.992;10.158;2023-05-07T07:35:35;4.80;;;2.37;;
7233;SDS011;3658;47.992;10.158;2023-05-07T07:38:03;5.47;;;2.33;;
7233;SDS011;3658;47.992;10.158;2023-05-07T07:40:29;9.00;;;2.20;;
7233;SDS011;3658;47.992;10.158;2023-05-07T07:42:58;8.30;;;1.93;;
7233;SDS011;3658;47.992;10.158;2023-05-07T07:45:26;4.57;;;2.03;;
7233;SDS011;3658;47.992;10.158;2023-05-07T07:47:53;5.67;;;2.03;;
7233;SDS011;3658;47.992;10.158;2023-05-07T07:50:20;3.27;;;2.10;;
7233;SDS011;3658;47.992;10.158;2023-05-07T07:52:47;5.43;;;2.10;;
7233;SDS011;3658;47.992;10.158;2023-05-07T07:55:14;4.37;;;1.87;;
7233;SDS011;3658;47.992;10.158;2023-05-07T07:57:46;4.83;;;2.07;;
7233;SDS011;3658;47.992;10.158;2023-05-07T08:00:15;3.20;;;1.87;;
7233;SDS011;3658;47.992;10.158;2023-05-07T08:02:43;3.70;;;2.00;;
7233;SDS011;3658;47.992;10.158;2023-05-07T08:05:10;4.20;;;2.13;;
7233;SDS011;3658;47.992;10.158;2023-05-07T08:07:37;5.67;;;2.07;;
7233;SDS011;3658;47.992;10.158;2023-05-07T08:10:04;4.27;;;2.00;;
7233;SDS011;3658;47.992;10.158;2023-05-07T08:12:31;4.40;;;1.90;;
7233;SDS011;3658;47.992;10.158;2023-05-07T08:14:57;3.07;;;1.80;;
7233;SDS011;3658;47.992;10.158;2023-05-07T08:17:26;3.70;;;1.70;;
7233;SDS011;3658;47.992;10.158;2023-05-07T08:19:52;6.90;;;2.00;;
7233;SDS011;3658;47.992;10.158;2023-05-07T08:22:19;3.23;;;1.77;;
7233;SDS011;3658;47.992;10.158;2023-05-07T08:24:47;3.93;;;2.20;;
7233;SDS011;3658;47.992;10.158;2023-05-07T08:27:13;3.43;;;2.10;;
7233;SDS011;3658;47.992;10.158;2023-05-07T08:29:40;3.90;;;1.53;;
7233;SDS011;3658;47.992;10.158;2023-05-07T08:32:07;2.40;;;1.60;;
7233;SDS011;3658;47.992;10.158;2023-05-07T08:34:35;4.07;;;1.93;;
7233;SDS011;3658;47.992;10.158;2023-05-07T08:37:02;5.90;;;2.07;;
7233;SDS011;3658;47.992;10.158;2023-05-07T08:39:29;2.30;;;1.70;;
7233;SDS011;3658;47.992;10.158;2023-05-07T08:41:55;5.63;;;2.30;;
7233;SDS011;3658;47.992;10.158;2023-05-07T08:44:27;3.10;;;1.73;;
7233;SDS011;3658;47.992;10.158;2023-05-07T08:46:56;2.13;;;1.80;;
7233;SDS011;3658;47.992;10.158;2023-05-07T08:49:24;2.60;;;1.90;;
7233;SDS011;3658;47.992;10.158;2023-05-07T08:51:52;2.77;;;1.63;;
7233;SDS011;3658;47.992;10.158;2023-05-07T08:54:20;2.83;;;1.90;;
7233;SDS011;3658;47.992;10.158;2023-05-07T08:56:47;3.60;;;1.90;;
7233;SDS011;3658;47.992;10.158;2023-05-07T08:59:14;3.03;;;2.00;;
7233;SDS011;3658;47.992;10.158;2023-05-07T09:01:41;1.63;;;1.40;;
7233;SDS011;3658;47.992;10.158;2023-05-07T09:04:08;2.60;;;1.70;;
7233;SDS011;3658;47.992;10.158;2023-05-07T09:06:35;2.37;;;1.60;;
7233;SDS011;3658;47.992;10.158;2023-05-07T09:09:04;3.53;;;2.27;;
7233;SDS011;3658;47.992;10.158;2023-05-07T09:11:31;3.13;;;1.70;;
7233;SDS011;3658;47.992;10.158;2023-05-07T09:13:58;3.57;;;1.80;;
7233;SDS011;3658;47.992;10.158;2023-05-07T09:16:26;3.37;;;1.70;;
7233;SDS011;3658;47.992;10.158;2023-05-07T09:18:55;2.93;;;1.70;;
7233;SDS011;3658;47.992;10.158;2023-05-07T09:21:23;2.03;;;1.73;;
7233;SDS011;3658;47.992;10.158;2023-05-07T09:23:51;2.03;;;1.60;;
7233;SDS011;3658;47.992;10.158;2023-05-07T09:26:19;2.80;;;2.20;;
7233;SDS011;3658;47.992;10.158;2023-05-07T09:28:47;1.60;;;1.50;;
7233;SDS011;3658;47.992;10.158;2023-05-07T09:31:14;2.40;;;1.57;;
7233;SDS011;3658;47.992;10.158;2023-05-07T09:33:41;2.97;;;1.90;;
7233;SDS011;3658;47.992;10.158;2023-05-07T09:36:08;2.27;;;1.50;;
7233;SDS011;3658;47.992;10.158;2023-05-07T09:38:36;2.43;;;1.70;;
7233;SDS011;3658;47.992;10.158;2023-05-07T09:41:04;2.30;;;1.40;;
7233;SDS011;3658;47.992;10.158;2023-05-07T09:43:33;3.87;;;1.80;;
7233;SDS011;3658;47.992;10.158;2023-05-07T09:46:02;1.70;;;1.60;;
7233;SDS011;3658;47.992;10.158;2023-05-07T09:48:31;2.30;;;1.47;;
7233;SDS011;3658;47.992;10.158;2023-05-07T09:51:02;2.00;;;1.70;;
7233;SDS011;3658;47.992;10.158;2023-05-07T09:53:36;2.23;;;1.70;;
7233;SDS011;3658;47.992;10.158;2023-05-07T09:56:05;1.77;;;1.60;;
7233;SDS011;3658;47.992;10.158;2023-05-07T09:58:33;3.10;;;2.10;;
7233;SDS011;3658;47.992;10.158;2023-05-07T10:01:05;1.83;;;1.60;;
7233;SDS011;3658;47.992;10.158;2023-05-07T10:03:32;2.47;;;1.43;;
7233;SDS011;3658;47.992;10.158;2023-05-07T10:06:01;2.50;;;1.80;;
7233;SDS011;3658;47.992;10.158;2023-05-07T10:08:29;1.93;;;1.60;;
7233;SDS011;3658;47.992;10.158;2023-05-07T10:10:57;1.80;;;1.70;;
7233;SDS011;3658;47.992;10.158;2023-05-07T10:13:24;1.60;;;1.50;;
7233;SDS011;3658;47.992;10.158;2023-05-07T10:15:52;2.37;;;1.90;;
7233;SDS011;3658;47.992;10.158;2023-05-07T10:18:19;1.53;;;1.43;;
7233;SDS011;3658;47.992;10.158;2023-05-07T10:20:54;2.50;;;1.70;;
7233;SDS011;3658;47.992;10.158;2023-05-07T10:23:25;2.70;;;1.63;;
7233;SDS011;3658;47.992;10.158;2023-05-07T10:25:53;2.00;;;1.60;;
7233;SDS011;3658;47.992;10.158;2023-05-07T10:28:21;2.43;;;1.63;;
7233;SDS011;3658;47.992;10.158;2023-05-07T10:30:55;1.60;;;1.50;;
7233;SDS011;3658;47.992;10.158;2023-05-07T10:33:30;2.60;;;1.80;;
7233;SDS011;3658;47.992;10.158;2023-05-07T10:35:59;2.30;;;1.60;;
7233;SDS011;3658;47.992;10.158;2023-05-07T10:38:29;1.80;;;1.70;;
7233;SDS011;3658;47.992;10.158;2023-05-07T10:40:56;2.40;;;1.80;;
7233;SDS011;3658;47.992;10.158;2023-05-07T10:43:23;2.60;;;2.23;;
7233;SDS011;3658;47.992;10.158;2023-05-07T10:51:36;1.63;;;1.53;;
7233;SDS011;3658;47.992;10.158;2023-05-07T10:54:19;1.83;;;1.73;;
7233;SDS011;3658;47.992;10.158;2023-05-07T10:56:47;2.20;;;2.00;;
7233;SDS011;3658;47.992;10.158;2023-05-07T10:59:34;2.27;;;1.70;;
7233;SDS011;3658;47.992;10.158;2023-05-07T11:02:08;2.00;;;1.80;;
7233;SDS011;3658;47.992;10.158;2023-05-07T11:04:36;2.40;;;1.83;;
7233;SDS011;3658;47.992;10.158;2023-05-07T11:07:24;1.97;;;1.67;;
7233;SDS011;3658;47.992;10.158;2023-05-07T11:09:58;1.63;;;1.53;;
7233;SDS011;3658;47.992;10.158;2023-05-07T11:12:50;1.97;;;1.77;;
7233;SDS011;3658;47.992;10.158;2023-05-07T11:15:37;1.90;;;1.70;;
7233;SDS011;3658;47.992;10.158;2023-05-07T11:18:11;1.67;;;1.50;;
7233;SDS011;3658;47.992;10.158;2023-05-07T11:20:45;2.07;;;1.60;;
7233;SDS011;3658;47.992;10.158;2023-05-07T11:26:41;1.90;;;1.40;;
7233;SDS011;3658;47.992;10.158;2023-05-07T11:29:13;1.80;;;1.70;;
7233;SDS011;3658;47.992;10.158;2023-05-07T11:31:44;2.03;;;1.50;;
7233;SDS011;3658;47.992;10.158;2023-05-07T11:34:16;1.73;;;1.63;;
7233;SDS011;3658;47.992;10.158;2023-05-07T11:36:47;1.70;;;1.60;;
7233;SDS011;3658;47.992;10.158;2023-05-07T11:39:25;2.13;;;1.70;;
7233;SDS011;3658;47.992;10.158;2023-05-07T11:41:53;1.67;;;1.57;;
7233;SDS011;3658;47.992;10.158;2023-05-07T11:44:20;1.80;;;1.70;;
7233;SDS011;3658;47.992;10.158;2023-05-07T11:46:46;1.60;;;1.50;;
7233;SDS011;3658;47.992;10.158;2023-05-07T11:49:14;1.80;;;1.70;;
7233;SDS011;3658;47.992;10.158;2023-05-07T11:51:42;2.03;;;1.73;;
7233;SDS011;3658;47.992;10.158;2023-05-07T11:54:11;1.60;;;1.50;;
7233;SDS011;3658;47.992;10.158;2023-05-07T11:56:41;1.97;;;1.60;;
7233;SDS011;3658;47.992;10.158;2023-05-07T11:59:07;1.90;;;1.63;;
7233;SDS011;3658;47.992;10.158;2023-05-07T12:01:35;1.77;;;1.67;;
7233;SDS011;3658;47.992;10.158;2023-05-07T12:04:02;1.87;;;1.63;;
7233;SDS011;3658;47.992;10.158;2023-05-07T12:06:30;2.13;;;1.93;;
7233;SDS011;3658;47.992;10.158;2023-05-07T12:08:58;1.73;;;1.63;;
7233;SDS011;3658;47.992;10.158;2023-05-07T12:11:25;1.77;;;1.67;;
7233;SDS011;3658;47.992;10.158;2023-05-07T12:13:53;1.80;;;1.70;;
7233;SDS011;3658;47.992;10.158;2023-05-07T12:16:20;1.83;;;1.67;;
7233;SDS011;3658;47.992;10.158;2023-05-07T12:18:48;1.53;;;1.43;;
7233;SDS011;3658;47.992;10.158;2023-05-07T12:21:15;1.80;;;1.70;;
7233;SDS011;3658;47.992;10.158;2023-05-07T12:23:42;1.83;;;1.73;;
7233;SDS011;3658;47.992;10.158;2023-05-07T12:26:11;2.10;;;1.90;;
7233;SDS011;3658;47.992;10.158;2023-05-07T12:28:38;1.73;;;1.63;;
7233;SDS011;3658;47.992;10.158;2023-05-07T12:31:05;2.00;;;1.80;;
7233;SDS011;3658;47.992;10.158;2023-05-07T12:33:32;2.10;;;1.83;;
7233;SDS011;3658;47.992;10.158;2023-05-07T12:36:02;2.40;;;1.80;;
7233;SDS011;3658;47.992;10.158;2023-05-07T12:38:36;2.00;;;1.80;;
7233;SDS011;3658;47.992;10.158;2023-05-07T12:41:05;2.20;;;2.00;;
7233;SDS011;3658;47.992;10.158;2023-05-07T12:43:33;2.40;;;1.90;;
7233;SDS011;3658;47.992;10.158;2023-05-07T12:46:01;1.70;;;1.60;;
7233;SDS011;3658;47.992;10.158;2023-05-07T12:48:29;1.93;;;1.73;;
7233;SDS011;3658;47.992;10.158;2023-05-07T12:50:57;1.83;;;1.70;;
7233;SDS011;3658;47.992;10.158;2023-05-07T12:53:25;1.70;;;1.60;;
7233;SDS011;3658;47.992;10.158;2023-05-07T12:55:53;2.17;;;1.97;;
7233;SDS011;3658;47.992;10.158;2023-05-07T12:58:23;2.23;;;1.90;;
7233;SDS011;3658;47.992;10.158;2023-05-07T13:00:52;2.30;;;2.00;;
7233;SDS011;3658;47.992;10.158;2023-05-07T13:03:23;2.03;;;1.80;;
7233;SDS011;3658;47.992;10.158;2023-05-07T13:05:53;2.07;;;1.87;;
7233;SDS011;3658;47.992;10.158;2023-05-07T13:08:27;2.10;;;1.80;;
7233;SDS011;3658;47.992;10.158;2023-05-07T13:10:55;1.90;;;1.80;;
7233;SDS011;3658;47.992;10.158;2023-05-07T13:13:22;1.97;;;1.87;;
7233;SDS011;3658;47.992;10.158;2023-05-07T13:15:50;2.37;;;1.80;;
7233;SDS011;3658;47.992;10.158;2023-05-07T13:18:18;1.77;;;1.67;;
7233;SDS011;3658;47.992;10.158;2023-05-07T13:20:45;2.00;;;1.80;;
7233;SDS011;3658;47.992;10.158;2023-05-07T13:23:11;1.73;;;1.63;;
7233;SDS011;3658;47.992;10.158;2023-05-07T13:25:38;2.03;;;1.83;;
7233;SDS011;3658;47.992;10.158;2023-05-07T13:28:05;2.03;;;1.83;;
7233;SDS011;3658;47.992;10.158;2023-05-07T13:30:32;2.00;;;1.90;;
7233;SDS011;3658;47.992;10.158;2023-05-07T13:32:59;2.40;;;2.20;;
7233;SDS011;3658;47.992;10.158;2023-05-07T13:35:28;2.10;;;1.90;;
7233;SDS011;3658;47.992;10.158;2023-05-07T13:37:55;2.20;;;2.00;;
7233;SDS011;3658;47.992;10.158;2023-05-07T13:40:21;3.30;;;2.10;;
7233;SDS011;3658;47.992;10.158;2023-05-07T13:42:49;2.17;;;1.97;;
7233;SDS011;3658;47.992;10.158;2023-05-07T13:45:16;2.27;;;2.07;;
7233;SDS011;3658;47.992;10.158;2023-05-07T13:47:43;2.23;;;1.90;;
7233;SDS011;3658;47.992;10.158;2023-05-07T13:50:10;2.20;;;2.00;;
7233;SDS011;3658;47.992;10.158;2023-05-07T13:52:39;2.20;;;2.00;;
7233;SDS011;3658;47.992;10.158;2023-05-07T13:55:08;2.87;;;2.50;;
7233;SDS011;3658;47.992;10.158;2023-05-07T13:57:35;2.27;;;2.07;;
7233;SDS011;3658;47.992;10.158;2023-05-07T14:00:02;2.53;;;2.20;;
7233;SDS011;3658;47.992;10.158;2023-05-07T14:02:30;2.20;;;2.00;;
7233;SDS011;3658;47.992;10.158;2023-05-07T14:04:57;2.20;;;2.03;;
7233;SDS011;3658;47.992;10.158;2023-05-07T14:07:24;2.20;;;2.00;;
7233;SDS011;3658;47.992;10.158;2023-05-07T14:09:52;2.40;;;2.20;;
7233;SDS011;3658;47.992;10.158;2023-05-07T14:12:18;2.00;;;1.90;;
7233;SDS011;3658;47.992;10.158;2023-05-07T14:14:45;2.03;;;1.90;;
7233;SDS011;3658;47.992;10.158;2023-05-07T14:17:16;2.47;;;2.27;;
7233;SDS011;3658;47.992;10.158;2023-05-07T14:19:43;1.90;;;1.80;;
7233;SDS011;3658;47.992;10.158;2023-05-07T14:22:09;2.00;;;1.90;;
7233;SDS011;3658;47.992;10.158;2023-05-07T14:24:36;2.27;;;2.07;;
7233;SDS011;3658;47.992;10.158;2023-05-07T14:27:05;2.40;;;2.00;;
7233;SDS011;3658;47.992;10.158;2023-05-07T14:29:32;2.23;;;2.03;;
7233;SDS011;3658;47.992;10.158;2023-05-07T14:32:00;2.40;;;2.20;;
7233;SDS011;3658;47.992;10.158;2023-05-07T14:34:27;2.50;;;2.30;;
7233;SDS011;3658;47.992;10.158;2023-05-07T14:36:54;2.20;;;2.00;;
7233;SDS011;3658;47.992;10.158;2023-05-07T14:39:21;2.40;;;2.20;;
7233;SDS011;3658;47.992;10.158;2023-05-07T14:41:48;2.37;;;2.17;;
7233;SDS011;3658;47.992;10.158;2023-05-07T14:44:16;2.10;;;1.90;;
7233;SDS011;3658;47.992;10.158;2023-05-07T14:46:43;2.40;;;2.00;;
7233;SDS011;3658;47.992;10.158;2023-05-07T14:49:09;2.27;;;2.07;;
7233;SDS011;3658;47.992;10.158;2023-05-07T14:51:42;2.30;;;2.10;;
7233;SDS011;3658;47.992;10.158;2023-05-07T14:54:09;2.30;;;2.10;;
7233;SDS011;3658;47.992;10.158;2023-05-07T14:56:35;2.40;;;2.20;;
7233;SDS011;3658;47.992;10.158;2023-05-07T14:59:03;2.30;;;2.10;;
7233;SDS011;3658;47.992;10.158;2023-05-07T15:01:31;2.20;;;2.00;;
7233;SDS011;3658;47.992;10.158;2023-05-07T15:03:58;2.70;;;2.50;;
7233;SDS011;3658;47.992;10.158;2023-05-07T15:06:26;2.43;;;2.20;;
7233;SDS011;3658;47.992;10.158;2023-05-07T15:08:53;2.77;;;2.43;;
7233;SDS011;3658;47.992;10.158;2023-05-07T15:11:20;2.70;;;2.33;;
7233;SDS011;3658;47.992;10.158;2023-05-07T15:13:52;4.83;;;2.30;;